ENSD

Details ICAO ENSD (SDN)
Name Sandane
Region Norway
Timezone Europe/Oslo (UTC+2.0)
Plans Departing 27
Arriving 43
Stats Elevation 177 ft / 54 m (AMSL)
Location 61.830269° 6.109493°
Runways 1
Magnetic Variation 1.264° E
Sunrise 2018-05-22 02:27:25 UTC / 2018-05-22 04:27:25 Local
Sunset 2018-05-22 20:39:53 UTC / 2018-05-22 22:39:53 Local
Advertisement - Login to hide

Runways

ID Width Length Bearing (true) Bearing (mag) Surface Threshold Offset Overrun Length
08 98 ft / 30 m 2,759 ft / 841 m 84.29° 83.03° Asphalt 0 ft / 0 m 0 ft / 0 m
26 98 ft / 30 m 2,759 ft / 841 m 264.31° 263.05° Asphalt 0 ft / 0 m 0 ft / 0 m

Map

Weather


0- 5 10 15 20 25 30 35+ Temperature / ° C

Clouds and Precipitation
Forecast for 2018-05-22 12:00 UTC. Updated 3 hours ago

Ground ~20,000 ft ~40,000 ft Winds

METAR

ENSD 221420Z 29010KT 9999 FEW037 16/07 Q1022 RMK WIND 1138FT 28007KT

TAF

Not found
Warning: Do not use this data for real-world aviation or navigation. No guarantee of current accuracy is given.